Time;durP1;ratioP1;P1;durP2;ratioP2;P2;SDS_P1;SDS_P2;PMS_P1;PMS_P2;Temp;Humidity;BMP_temperature;BMP_pressure;BME280_temperature;BME280_humidity;BME280_pressure;Samples;Min_cycle;Max_cycle;Signal;HPM_P1;HPM_P2
2022/05/14 00:00:01;;;;;;;7.35;6.70;;;;;;;11.25;100.00;98953.51;2169092;81;21537;-84
2022/05/14 00:03:05;;;;;;;7.65;6.78;;;;;;;11.17;100.00;98953.58;2168056;81;21521;-83
2022/05/14 00:06:07;;;;;;;9.10;6.72;;;;;;;11.17;100.00;98947.84;2171202;81;21089;-81
2022/05/14 00:09:08;;;;;;;9.55;6.62;;;;;;;11.14;100.00;98948.17;2166913;81;21546;-84
2022/05/14 00:15:30;;;;;;;8.80;7.47;;;;;;;11.23;100.00;98948.42;2164561;81;21533;-84
2022/05/14 00:18:32;;;;;;;9.10;6.60;;;;;;;11.20;100.00;98949.28;2166043;81;20994;-85
2022/05/14 00:21:35;;;;;;;7.12;6.42;;;;;;;11.15;100.00;98960.78;2174091;81;21020;-83
2022/05/14 00:24:37;;;;;;;9.38;6.60;;;;;;;11.06;100.00;98958.72;2170452;81;21538;-84
2022/05/14 00:27:38;;;;;;;7.80;7.03;;;;;;;11.01;100.00;98963.19;2167111;81;21109;-84
2022/05/14 00:30:40;;;;;;;7.37;6.40;;;;;;;11.08;100.00;98959.38;2169272;81;21076;-86
2022/05/14 00:33:42;;;;;;;7.60;6.95;;;;;;;11.06;100.00;98954.79;2172953;81;21068;-84
2022/05/14 00:36:43;;;;;;;9.00;7.90;;;;;;;11.10;100.00;98956.89;2173922;81;21086;-85
2022/05/14 00:39:45;;;;;;;8.60;7.80;;;;;;;11.10;100.00;98956.89;2169284;81;21582;-83
2022/05/14 00:42:47;;;;;;;8.43;7.42;;;;;;;11.07;100.00;98955.14;2173488;81;21013;-84
2022/05/14 00:45:48;;;;;;;9.90;7.90;;;;;;;11.09;100.00;98965.75;2170086;82;21089;-84
2022/05/14 00:48:51;;;;;;;11.65;8.18;;;;;;;11.03;100.00;98963.83;2174363;81;21094;-86
2022/05/14 00:51:53;;;;;;;10.05;8.28;;;;;;;10.94;100.00;98968.00;2169579;81;21129;-84
2022/05/14 00:54:55;;;;;;;9.60;8.68;;;;;;;10.88;100.00;98962.14;2171951;81;21552;-84
2022/05/14 00:57:57;;;;;;;8.88;7.78;;;;;;;10.92;100.00;98966.05;2170161;81;21088;-84
2022/05/14 01:00:58;;;;;;;9.00;8.08;;;;;;;10.96;100.00;98964.20;2165855;81;21098;-85
2022/05/14 01:04:00;;;;;;;9.93;8.23;;;;;;;10.95;100.00;98967.00;2166259;81;21523;-86
2022/05/14 01:07:02;;;;;;;8.30;7.60;;;;;;;10.93;100.00;98961.94;2165651;81;21382;-86
2022/05/14 01:10:03;;;;;;;10.32;8.48;;;;;;;10.90;100.00;98952.33;2170978;81;21542;-85
2022/05/14 01:13:05;;;;;;;13.08;10.05;;;;;;;10.89;100.00;98957.25;2166213;81;21101;-85
2022/05/14 01:16:07;;;;;;;12.70;9.53;;;;;;;10.87;100.00;98956.09;2168899;81;21349;-85
2022/05/14 01:19:10;;;;;;;9.78;8.63;;;;;;;10.89;100.00;98959.87;2165732;81;21021;-87
2022/05/14 01:22:12;;;;;;;10.10;8.78;;;;;;;10.93;100.00;98958.02;2166158;81;21052;-86
2022/05/14 01:28:34;;;;;;;10.15;8.90;;;;;;;11.00;100.00;98960.75;2166510;81;21180;-86
2022/05/14 01:31:36;;;;;;;9.15;8.30;;;;;;;11.05;100.00;98962.33;2168563;81;21061;-85
2022/05/14 01:34:37;;;;;;;10.75;8.53;;;;;;;11.13;100.00;98962.27;2174276;82;21086;-87
2022/05/14 01:37:39;;;;;;;10.10;8.55;;;;;;;11.13;100.00;98957.52;2172209;81;21054;-84
2022/05/14 01:40:41;;;;;;;10.00;9.08;;;;;;;11.14;100.00;98960.46;2172492;81;21533;-83
2022/05/14 01:43:43;;;;;;;8.73;7.83;;;;;;;11.08;100.00;98965.94;2169965;81;21506;-84
2022/05/14 01:46:44;;;;;;;9.03;7.92;;;;;;;11.09;100.00;98970.18;2168219;81;21032;-80
2022/05/14 01:49:46;;;;;;;9.53;8.73;;;;;;;11.14;100.00;98963.89;2170451;81;21599;-85
2022/05/14 01:52:48;;;;;;;8.78;7.50;;;;;;;11.17;100.00;98967.98;2169958;81;21085;-85
2022/05/14 01:55:49;;;;;;;8.48;7.42;;;;;;;11.17;100.00;98966.68;2165916;81;21537;-84
2022/05/14 01:58:51;;;;;;;10.58;8.03;;;;;;;11.18;100.00;98961.26;2166260;81;21552;-83
2022/05/14 02:01:53;;;;;;;11.45;7.87;;;;;;;11.23;100.00;98965.95;2167736;81;21009;-85
2022/05/14 02:04:55;;;;;;;8.78;7.55;;;;;;;11.24;100.00;98967.58;2168548;81;21057;-83
2022/05/14 02:07:56;;;;;;;8.95;7.25;;;;;;;11.21;100.00;98965.32;2166718;81;21084;-84
2022/05/14 02:10:58;;;;;;;7.00;6.40;;;;;;;11.21;100.00;98970.06;2175133;81;21068;-85
2022/05/14 02:14:00;;;;;;;8.90;8.00;;;;;;;11.18;100.00;98971.73;2166003;81;21517;-84
2022/05/14 02:17:02;;;;;;;9.78;7.45;;;;;;;11.03;100.00;98978.73;2171335;81;20974;-83
2022/05/14 02:20:04;;;;;;;9.70;8.73;;;;;;;10.93;100.00;98982.09;2167545;81;21013;-83
2022/05/14 02:23:05;;;;;;;10.40;8.85;;;;;;;10.83;100.00;98981.83;2169114;82;21074;-83
2022/05/14 02:26:07;;;;;;;9.45;8.55;;;;;;;10.79;100.00;98978.44;2167327;81;20974;-83
2022/05/14 02:29:09;;;;;;;12.73;8.83;;;;;;;10.73;100.00;98976.00;2163576;81;21065;-83
2022/05/14 02:32:10;;;;;;;11.83;9.78;;;;;;;10.70;100.00;98971.13;2164295;81;21100;-79
2022/05/14 02:35:12;;;;;;;9.55;8.63;;;;;;;10.75;100.00;98970.09;2161139;81;21051;-85
2022/05/14 02:38:15;;;;;;;9.40;8.50;;;;;;;10.65;100.00;98968.70;2164338;81;21024;-84
2022/05/14 02:41:17;;;;;;;11.30;9.43;;;;;;;10.66;100.00;98969.02;2168282;81;21030;-86
2022/05/14 02:44:18;;;;;;;13.58;12.13;;;;;;;10.69;100.00;98956.87;2167351;81;21567;-85
2022/05/14 02:47:20;;;;;;;10.75;9.45;;;;;;;10.67;100.00;98964.91;2166864;81;21156;-86
2022/05/14 02:50:22;;;;;;;12.45;10.60;;;;;;;10.64;100.00;98961.83;2169427;81;20989;-84
2022/05/14 02:53:23;;;;;;;11.40;10.10;;;;;;;10.56;100.00;98958.77;2167795;81;21002;-81
2022/05/14 02:56:25;;;;;;;13.18;11.18;;;;;;;10.57;100.00;98963.02;2170710;82;21013;-86
2022/05/14 02:59:27;;;;;;;11.70;10.45;;;;;;;10.53;100.00;98965.17;2167531;81;21412;-85
2022/05/14 03:02:28;;;;;;;13.00;11.65;;;;;;;10.54;100.00;98965.49;2165202;81;21032;-85
2022/05/14 03:05:30;;;;;;;12.03;10.72;;;;;;;10.47;100.00;98960.62;2167476;81;21041;-85
2022/05/14 03:08:34;;;;;;;11.93;10.60;;;;;;;10.43;100.00;98964.58;2166971;81;21051;-84
2022/05/14 03:11:35;;;;;;;11.20;9.98;;;;;;;10.46;100.00;98972.08;2168774;81;21014;-85
2022/05/14 03:14:37;;;;;;;15.40;10.25;;;;;;;10.46;100.00;98979.93;2169628;82;21061;-80
2022/05/14 03:17:39;;;;;;;12.43;9.68;;;;;;;10.54;100.00;98978.58;2167415;81;21042;-81
2022/05/14 03:20:41;;;;;;;11.25;9.55;;;;;;;10.65;100.00;98973.44;2170802;81;21549;-83
2022/05/14 03:23:43;;;;;;;11.03;9.48;;;;;;;10.94;100.00;98974.05;2168264;81;21584;-85
2022/05/14 03:26:44;;;;;;;10.50;9.50;;;;;;;11.28;100.00;98973.61;2170475;81;21561;-83
2022/05/14 03:29:46;;;;;;;9.93;9.03;;;;;;;11.83;100.00;98963.26;2170087;81;21114;-85
2022/05/14 03:32:48;;;;;;;9.08;8.18;;;;;;;11.83;100.00;98963.26;2167908;81;21775;-84
2022/05/14 03:35:49;;;;;;;9.63;8.78;;;;;;;12.33;100.00;98971.34;2169274;81;20969;-82
2022/05/14 03:38:51;;;;;;;8.73;7.92;;;;;;;12.72;100.00;98973.61;2167659;81;21034;-83
2022/05/14 03:41:53;;;;;;;10.75;8.30;;;;;;;13.26;100.00;98972.61;2168598;81;21548;-79
2022/05/14 03:44:55;;;;;;;7.85;7.05;;;;;;;13.68;100.00;98980.59;2170283;81;21049;-79
2022/05/14 03:47:57;;;;;;;8.15;7.42;;;;;;;14.27;100.00;98977.47;2170316;81;21062;-82
2022/05/14 03:50:59;;;;;;;7.78;7.17;;;;;;;14.76;100.00;98978.55;2167997;81;21021;-86
2022/05/14 03:54:00;;;;;;;7.28;6.67;;;;;;;15.46;100.00;98975.86;2170694;82;21583;-84
2022/05/14 03:57:02;;;;;;;7.70;6.72;;;;;;;15.96;98.71;98978.83;2169659;81;21125;-83
2022/05/14 04:00:04;;;;;;;11.75;6.45;;;;;;;16.45;94.96;98983.52;2171148;81;21550;-85
2022/05/14 04:03:06;;;;;;;6.75;6.00;;;;;;;17.05;91.09;98981.88;2171686;81;21116;-85
2022/05/14 04:06:07;;;;;;;8.38;6.00;;;;;;;17.66;87.28;98979.84;2169117;81;21044;-85
2022/05/14 04:09:09;;;;;;;9.73;5.42;;;;;;;18.12;80.86;98982.03;2167733;81;21052;-86
2022/05/14 04:12:11;;;;;;;7.42;5.67;;;;;;;18.58;79.58;98979.84;2166527;81;20989;-82
2022/05/14 04:15:12;;;;;;;7.10;5.45;;;;;;;19.01;77.47;98979.12;2167266;81;21585;-85
2022/05/14 04:18:14;;;;;;;7.20;5.42;;;;;;;19.42;71.96;98983.30;2173421;82;21037;-86
2022/05/14 04:21:16;;;;;;;6.08;5.47;;;;;;;19.70;70.64;98986.62;2170759;81;21073;-85
2022/05/14 04:24:18;;;;;;;5.75;5.20;;;;;;;19.98;67.99;98984.56;2166591;81;21587;-85
2022/05/14 04:27:20;;;;;;;8.78;5.20;;;;;;;20.44;66.58;98991.12;2170261;82;21025;-84
2022/05/14 04:30:21;;;;;;;5.67;5.15;;;;;;;20.77;63.05;98992.28;2171566;81;21013;-81
2022/05/14 04:33:23;;;;;;;5.33;4.85;;;;;;;21.02;61.15;98991.89;2176685;81;21033;-84
2022/05/14 04:36:25;;;;;;;8.10;4.78;;;;;;;21.35;57.89;98998.33;2165825;81;21452;-86
2022/05/14 04:39:32;;;;;;;6.00;4.67;;;;;;;21.60;57.26;98993.39;2164960;81;21072;-87
2022/05/14 04:42:37;;;;;;;5.40;4.40;;;;;;;22.09;55.91;98999.69;2166077;81;21100;-87
2022/05/14 04:45:38;;;;;;;6.08;5.47;;;;;;;22.63;54.79;99004.32;2167056;81;21113;-87
2022/05/14 04:48:40;;;;;;;6.58;5.03;;;;;;;22.98;52.34;99006.58;2166795;81;21600;-86
2022/05/14 04:51:41;;;;;;;5.72;4.42;;;;;;;23.17;51.48;99009.15;2168053;81;21053;-85
2022/05/14 04:54:43;;;;;;;5.08;4.42;;;;;;;23.06;50.45;99010.66;2168854;81;21058;-83
2022/05/14 04:57:45;;;;;;;6.55;4.75;;;;;;;22.87;49.48;99013.69;2167914;81;21134;-87
2022/05/14 05:00:46;;;;;;;5.35;4.22;;;;;;;22.52;48.55;99008.75;2168207;81;21059;-84
2022/05/14 05:03:48;;;;;;;5.90;4.87;;;;;;;22.46;48.81;99007.59;2166946;81;21039;-84
2022/05/14 05:06:50;;;;;;;7.58;4.85;;;;;;;22.31;48.70;99006.88;2164772;81;21591;-84
2022/05/14 05:09:53;;;;;;;7.03;5.47;;;;;;;22.08;48.38;99010.08;2169503;81;22112;-87
2022/05/14 05:12:55;;;;;;;9.45;4.70;;;;;;;21.98;48.39;99010.44;2170726;81;21090;-84
2022/05/14 05:15:57;;;;;;;8.25;4.65;;;;;;;21.77;48.43;99008.03;2168682;81;21069;-88
2022/05/14 05:18:58;;;;;;;6.53;4.83;;;;;;;21.45;49.02;99016.59;2171745;81;21041;-85
2022/05/14 05:22:00;;;;;;;8.53;5.28;;;;;;;21.38;48.86;99016.47;2167076;81;21081;-82
2022/05/14 05:25:01;;;;;;;12.43;5.00;;;;;;;21.34;48.52;99011.36;2169578;81;21018;-85
2022/05/14 05:28:03;;;;;;;8.25;4.33;;;;;;;21.26;48.51;99016.03;2168549;81;21525;-87
2022/05/14 05:31:06;;;;;;;6.20;4.72;;;;;;;21.45;48.30;99014.46;2165993;81;21065;-87
2022/05/14 05:34:07;;;;;;;6.03;4.12;;;;;;;21.22;48.55;99013.55;2168134;81;21006;-86
2022/05/14 05:37:09;;;;;;;8.33;3.90;;;;;;;20.90;49.26;99015.91;2168584;81;21089;-88
2022/05/14 05:40:11;;;;;;;8.55;4.22;;;;;;;20.88;48.95;99019.34;2165580;81;21057;-84
2022/05/14 05:43:12;;;;;;;5.58;3.95;;;;;;;20.63;48.67;99020.20;2166392;81;21024;-87
2022/05/14 05:46:14;;;;;;;7.40;4.15;;;;;;;20.41;49.47;99010.71;2167527;81;21105;-85
2022/05/14 05:49:16;;;;;;;4.55;4.10;;;;;;;20.21;49.78;99011.11;2167253;81;21137;-88
2022/05/14 05:52:17;;;;;;;5.28;4.28;;;;;;;20.19;49.88;99009.19;2170419;81;21122;-85
2022/05/14 05:58:39;;;;;;;3.90;3.50;;;;;;;20.25;50.81;99000.28;2165454;81;21022;-87
2022/05/14 06:01:41;;;;;;;5.50;3.98;;;;;;;20.33;50.21;99000.44;2170395;82;21033;-84
2022/05/14 06:04:43;;;;;;;7.17;3.67;;;;;;;20.13;51.25;98995.00;2170995;81;21085;-89
2022/05/14 06:07:44;;;;;;;3.87;3.27;;;;;;;20.09;52.32;98992.51;2164813;81;21084;-86
2022/05/14 06:10:46;;;;;;;6.92;4.10;;;;;;;20.21;52.58;98995.66;2170707;81;21097;-86
2022/05/14 06:13:48;;;;;;;5.37;3.20;;;;;;;20.43;51.78;98996.68;2167799;81;21177;-89
2022/05/14 06:16:51;;;;;;;3.47;3.12;;;;;;;20.46;52.17;98996.20;2165741;81;21079;-85
2022/05/14 06:19:52;;;;;;;4.37;2.90;;;;;;;20.51;52.03;98998.97;2167171;81;21051;-84
2022/05/14 06:22:54;;;;;;;6.42;3.42;;;;;;;20.50;51.79;99004.01;2165686;81;21556;-85
2022/05/14 06:25:56;;;;;;;4.25;3.10;;;;;;;20.38;51.26;98998.67;2168808;81;21616;-85
2022/05/14 06:28:59;;;;;;;3.12;2.67;;;;;;;20.38;51.89;99000.00;2166900;81;21046;-85
2022/05/14 06:32:01;;;;;;;2.10;1.92;;;;;;;20.41;50.58;99008.05;2166016;81;21069;-88
2022/05/14 06:35:02;;;;;;;8.25;2.92;;;;;;;20.37;50.66;99002.37;2166522;81;21136;-89
2022/05/14 06:38:04;;;;;;;6.30;2.95;;;;;;;20.23;49.60;99012.20;2169265;81;21068;-84
2022/05/14 06:41:06;;;;;;;6.20;2.72;;;;;;;20.10;50.17;99015.91;2173696;81;21592;-89
2022/05/14 06:44:07;;;;;;;13.05;2.98;;;;;;;20.06;50.44;99012.92;2160328;81;21081;-87
2022/05/14 06:47:09;;;;;;;5.60;2.42;;;;;;;19.96;50.48;99014.55;2165520;81;21072;-88
2022/05/14 06:50:11;;;;;;;3.50;1.90;;;;;;;19.84;51.32;99002.59;2167417;81;20978;-86
2022/05/14 06:53:13;;;;;;;4.60;2.25;;;;;;;19.79;50.30;98999.84;2167253;81;21537;-88
2022/05/14 06:56:15;;;;;;;4.00;2.17;;;;;;;19.68;50.49;98996.67;2168413;81;21070;-86
2022/05/14 06:59:16;;;;;;;4.35;2.10;;;;;;;19.62;48.77;98993.60;2169165;82;21005;-88
2022/05/14 07:02:19;;;;;;;6.62;2.60;;;;;;;19.41;50.28;98997.09;2169193;81;21096;-86
2022/05/14 07:08:41;;;;;;;4.30;1.90;;;;;;;19.43;50.72;98995.00;2167239;81;21009;-86
2022/05/14 07:11:42;;;;;;;3.05;1.98;;;;;;;19.39;51.46;98996.52;2166321;81;21040;-86
2022/05/14 07:14:44;;;;;;;3.60;1.67;;;;;;;19.36;51.49;99000.13;2168587;81;21088;-84
2022/05/14 07:17:46;;;;;;;3.25;1.82;;;;;;;19.38;50.32;98996.20;2168807;81;21524;-86
2022/05/14 07:20:48;;;;;;;6.25;2.62;;;;;;;19.41;50.95;98994.95;2169644;81;21584;-86
2022/05/14 07:23:49;;;;;;;4.25;1.67;;;;;;;19.49;51.25;98991.44;2169246;81;21039;-81
2022/05/14 07:26:51;;;;;;;3.55;1.82;;;;;;;19.49;51.06;98986.13;2168584;81;21548;-80
2022/05/14 07:29:55;;;;;;;4.58;1.80;;;;;;;19.55;51.19;98987.03;2157853;82;21058;-88
2022/05/14 07:32:56;;;;;;;6.67;1.82;;;;;;;19.51;50.06;98981.39;2169305;81;21081;-84
2022/05/14 07:35:58;;;;;;;2.67;1.67;;;;;;;19.56;49.48;98970.90;2165253;81;21084;-87
2022/05/14 07:38:59;;;;;;;3.08;1.70;;;;;;;19.58;49.43;98976.00;2165746;81;21063;-88
2022/05/14 07:42:01;;;;;;;6.60;2.10;;;;;;;19.47;49.73;98969.59;2166736;81;21625;-87
2022/05/14 07:45:03;;;;;;;2.98;1.57;;;;;;;19.50;49.60;98969.67;2167368;81;21056;-86
2022/05/14 07:48:04;;;;;;;3.77;1.87;;;;;;;19.54;49.34;98964.98;2169286;81;21118;-81
2022/05/14 07:51:06;;;;;;;4.00;2.42;;;;;;;19.58;48.36;98957.41;2166691;81;21053;-86
2022/05/14 07:54:08;;;;;;;6.45;1.95;;;;;;;19.69;49.47;98952.61;2168535;81;20998;-86
2022/05/14 07:57:09;;;;;;;4.80;2.08;;;;;;;19.78;47.82;98952.53;2149967;80;21040;-84
2022/05/14 08:00:11;;;;;;;5.92;2.20;;;;;;;19.72;48.28;98950.80;2170924;80;21005;-84
2022/05/14 08:03:13;;;;;;;9.35;2.15;;;;;;;19.70;48.88;98941.45;2162821;81;21238;-90
2022/05/14 08:06:15;;;;;;;3.70;1.87;;;;;;;19.73;49.06;98951.61;2141901;82;21165;-87
2022/05/14 08:09:17;;;;;;;3.58;1.25;;;;;;;19.86;48.77;98947.39;2065472;86;21077;-85
2022/05/14 08:12:19;;;;;;;15.43;4.62;;;;;;;19.98;47.37;98951.34;2084522;83;21030;-88
2022/05/14 08:15:21;;;;;;;5.45;1.60;;;;;;;20.14;48.09;98943.97;2109696;82;21080;-85
2022/05/14 08:18:23;;;;;;;4.05;2.17;;;;;;;20.35;45.35;98934.53;2121413;82;21048;-86
2022/05/14 08:24:45;;;;;;;7.25;2.33;;;;;;;21.09;45.39;98947.82;2161732;81;21090;-90
2022/05/14 08:27:47;;;;;;;14.85;4.40;;;;;;;21.52;45.28;98931.20;2170391;81;21041;-85
2022/05/14 08:30:49;;;;;;;6.12;2.22;;;;;;;21.80;47.02;98927.05;2161248;81;21066;-84
2022/05/14 08:33:50;;;;;;;2.98;1.62;;;;;;;21.82;45.27;98934.27;2180291;80;21053;-85
2022/05/14 08:36:52;;;;;;;3.90;1.77;;;;;;;21.80;43.11;98928.91;2172961;80;21604;-88
2022/05/14 08:39:54;;;;;;;6.10;1.82;;;;;;;21.82;41.56;98933.47;2183892;81;21050;-86
2022/05/14 08:42:55;;;;;;;6.83;3.15;;;;;;;21.70;39.65;98935.44;2170118;80;21068;-84
2022/05/14 08:45:57;;;;;;;3.05;1.42;;;;;;;21.66;39.99;98935.64;2154245;81;21104;-86
2022/05/14 08:48:59;;;;;;;5.08;1.72;;;;;;;21.49;38.88;98941.02;2158057;82;21013;-84
2022/05/14 08:52:00;;;;;;;4.53;1.60;;;;;;;21.23;39.71;98934.48;2154445;81;21035;-89
2022/05/14 08:55:02;;;;;;;4.45;1.72;;;;;;;21.27;40.68;98932.44;2171922;81;21130;-90
2022/05/14 08:58:04;;;;;;;4.97;1.90;;;;;;;21.26;39.81;98937.48;2185428;80;21101;-87
2022/05/14 09:01:05;;;;;;;4.62;1.67;;;;;;;21.14;40.16;98939.93;2180876;80;21074;-85
2022/05/14 09:04:08;;;;;;;4.87;1.85;;;;;;;21.29;40.81;98942.31;2179700;80;21585;-87
2022/05/14 09:07:10;;;;;;;3.47;1.40;;;;;;;21.49;40.93;98935.70;2199756;80;21106;-89
2022/05/14 09:10:12;;;;;;;2.05;1.55;;;;;;;21.57;40.67;98929.92;2058626;86;21052;-88
2022/05/14 09:13:14;;;;;;;5.95;2.05;;;;;;;21.75;39.01;98940.30;2069235;85;21099;-89
2022/05/14 09:16:16;;;;;;;4.15;1.65;;;;;;;21.69;39.48;98935.17;2139728;82;21366;-87
2022/05/14 09:19:18;;;;;;;2.45;1.80;;;;;;;21.69;40.01;98941.30;2180454;80;21129;-86
2022/05/14 09:22:20;;;;;;;4.90;1.90;;;;;;;21.60;39.82;98933.98;2195712;81;21119;-84
2022/05/14 09:25:21;;;;;;;4.08;1.75;;;;;;;21.37;39.67;98940.30;2180044;81;21066;-85
2022/05/14 09:28:23;;;;;;;7.85;1.72;;;;;;;21.19;39.76;98941.32;2181682;80;21013;-86
2022/05/14 09:31:25;;;;;;;3.08;1.70;;;;;;;21.05;40.33;98933.39;2203327;80;21070;-85
2022/05/14 09:34:27;;;;;;;4.12;1.60;;;;;;;20.73;40.19;98932.59;2194959;80;21517;-86
2022/05/14 09:37:28;;;;;;;4.40;1.72;;;;;;;20.51;40.38;98932.48;2187525;80;21088;-86
2022/05/14 09:40:33;;;;;;;6.83;1.27;;;;;;;20.58;39.97;98927.02;2197660;80;21637;-88
2022/05/14 09:43:35;;;;;;;5.12;1.90;;;;;;;20.70;39.95;98926.42;2065529;86;21081;-84
2022/05/14 09:46:37;;;;;;;6.47;1.65;;;;;;;20.63;38.87;98929.23;2071729;85;21106;-86
2022/05/14 09:49:40;;;;;;;4.33;1.55;;;;;;;20.40;39.54;98925.34;2096872;83;21129;-87
2022/05/14 09:52:41;;;;;;;5.12;2.10;;;;;;;20.23;40.57;98935.91;2093880;85;21517;-86
2022/05/14 09:55:43;;;;;;;6.47;3.12;;;;;;;20.21;41.45;98934.02;2095285;85;21548;-88
2022/05/14 09:58:45;;;;;;;3.33;1.40;;;;;;;20.22;41.64;98926.85;2092713;84;21588;-87
2022/05/14 10:01:47;;;;;;;13.98;2.52;;;;;;;20.27;42.52;98917.10;2098334;84;21612;-89
2022/05/14 10:04:48;;;;;;;4.67;2.30;;;;;;;20.52;41.76;98914.14;2100081;84;21089;-88
2022/05/14 10:07:50;;;;;;;3.02;1.85;;;;;;;20.82;41.43;98917.04;2100376;83;21114;-87
2022/05/14 10:10:52;;;;;;;3.77;1.92;;;;;;;20.79;40.83;98912.20;2084712;84;21082;-87
2022/05/14 10:13:54;;;;;;;3.52;2.12;;;;;;;20.63;41.21;98924.44;2095875;83;21053;-87
2022/05/14 10:16:56;;;;;;;6.12;3.00;;;;;;;20.34;41.66;98943.56;2103264;84;21583;-88
2022/05/14 10:19:57;;;;;;;4.15;2.05;;;;;;;20.10;42.14;98938.83;2064793;84;21177;-88
2022/05/14 10:29:39;;;;;;;8.88;1.92;;;;;;;20.39;40.47;98920.54;2070916;84;21001;-88
2022/05/14 10:32:42;;;;;;;2.62;1.50;;;;;;;20.65;39.90;98899.72;2072871;85;21670;-87
2022/05/14 10:35:43;;;;;;;2.85;1.40;;;;;;;20.83;37.95;98898.16;2091460;84;21148;-88
2022/05/14 10:38:45;;;;;;;4.03;1.77;;;;;;;20.87;38.74;98893.98;2108753;83;21021;-87
2022/05/14 10:41:47;;;;;;;3.95;1.65;;;;;;;20.98;38.27;98893.63;2099741;84;21101;-88
2022/05/14 10:44:51;;;;;;;5.15;1.80;;;;;;;21.06;38.63;98890.55;2098348;84;21128;-89
2022/05/14 10:47:52;;;;;;;6.42;1.95;;;;;;;21.09;36.69;98899.38;2078377;85;21154;-88
2022/05/14 10:50:54;;;;;;;2.85;2.02;;;;;;;21.02;36.59;98905.38;2132026;82;21591;-89
2022/05/14 10:54:00;;;;;;;3.15;2.15;;;;;;;21.11;37.01;98900.46;2166936;81;21005;-87
2022/05/14 10:57:02;;;;;;;1.52;1.22;;;;;;;21.27;37.10;98900.48;2165322;81;21612;-87
2022/05/14 11:00:07;;;;;;;4.58;1.95;;;;;;;21.26;36.64;98902.86;2169871;81;21134;-88
2022/05/14 11:03:11;;;;;;;3.70;1.37;;;;;;;21.31;36.19;98873.38;2168881;82;21614;-87
2022/05/14 11:06:12;;;;;;;2.75;1.75;;;;;;;21.26;36.40;98884.23;2164247;80;21102;-87
2022/05/14 11:09:14;;;;;;;8.70;2.50;;;;;;;21.44;36.58;98900.45;2166704;81;21132;-87
2022/05/14 11:12:15;;;;;;;5.95;1.62;;;;;;;21.53;37.13;98884.34;2167248;81;21081;-87
2022/05/14 11:15:17;;;;;;;3.35;1.87;;;;;;;21.66;36.97;98889.02;2159275;81;21008;-87
2022/05/14 11:18:19;;;;;;;4.65;1.98;;;;;;;21.70;37.20;98902.94;2152696;81;21076;-87
2022/05/14 11:21:22;;;;;;;3.15;1.55;;;;;;;21.53;36.55;98900.84;2094170;84;21085;-88
2022/05/14 11:24:24;;;;;;;4.90;2.20;;;;;;;21.48;36.93;98897.57;2148588;80;21084;-87
2022/05/14 11:27:25;;;;;;;3.75;1.55;;;;;;;21.62;37.43;98898.56;2150173;81;21078;-88
2022/05/14 11:30:29;;;;;;;5.20;1.70;;;;;;;21.66;36.63;98892.48;2169343;81;21041;-88
2022/05/14 11:33:31;;;;;;;6.87;1.95;;;;;;;21.62;36.81;98899.37;2142609;81;21208;-87
2022/05/14 11:36:34;;;;;;;5.08;2.02;;;;;;;21.59;36.64;98897.20;2175518;80;21100;-88
2022/05/14 11:39:36;;;;;;;4.35;2.40;;;;;;;21.62;37.18;98902.03;2166030;81;21005;-87
2022/05/14 11:42:37;;;;;;;7.28;2.15;;;;;;;21.61;36.89;98888.44;2150684;81;21144;-86
2022/05/14 11:45:39;;;;;;;3.42;1.60;;;;;;;21.72;37.54;98896.83;2143757;82;21102;-86
2022/05/14 11:48:43;;;;;;;5.45;1.45;;;;;;;21.87;36.89;98890.89;2145761;81;21113;-86
2022/05/14 11:51:44;;;;;;;7.87;4.75;;;;;;;22.04;36.11;98886.83;2158617;81;21961;-90
2022/05/14 11:54:47;;;;;;;3.12;2.20;;;;;;;22.12;36.00;98877.06;2172170;80;21096;-87
2022/05/14 11:57:49;;;;;;;5.87;1.95;;;;;;;22.22;36.16;98889.20;2158565;80;21050;-86
2022/05/14 12:00:52;;;;;;;4.55;2.00;;;;;;;22.23;34.84;98886.00;2165293;81;21470;-86
2022/05/14 12:03:54;;;;;;;5.95;2.52;;;;;;;22.31;35.48;98891.69;2143150;82;21100;-84
2022/05/14 12:06:58;;;;;;;5.90;2.00;;;;;;;22.55;35.56;98890.03;2145160;82;21117;-90
2022/05/14 12:10:04;;;;;;;5.65;1.80;;;;;;;22.59;35.36;98883.15;2159755;81;21017;-85
2022/05/14 12:13:03;;;;;;;6.97;2.20;;;;;;;22.61;35.28;98887.16;2163262;81;21078;-86
2022/05/14 12:16:07;;;;;;;2.72;1.98;;;;;;;22.39;34.59;98881.07;2093333;84;21553;-85
2022/05/14 12:19:08;;;;;;;3.72;2.17;;;;;;;22.20;34.98;98870.48;2177922;80;21017;-86
2022/05/14 12:22:10;;;;;;;4.62;1.67;;;;;;;22.10;35.50;98872.52;2157008;81;21648;-83
2022/05/14 12:25:14;;;;;;;3.87;2.37;;;;;;;22.20;35.51;98844.62;2158893;80;21108;-85
2022/05/14 12:28:17;;;;;;;3.15;1.87;;;;;;;22.20;34.39;98876.61;2144034;81;21557;-85
2022/05/14 12:34:42;;;;;;;3.47;1.92;;;;;;;21.85;34.37;98874.33;2159116;81;21715;-84
2022/05/14 12:37:42;;;;;;;2.77;1.92;;;;;;;21.78;34.10;98873.73;2164453;81;21125;-85
2022/05/14 12:40:44;;;;;;;4.37;1.62;;;;;;;21.66;34.46;98877.83;2163447;81;21582;-85
2022/05/14 12:43:46;;;;;;;4.35;2.20;;;;;;;21.67;34.55;98865.31;2170391;80;21040;-84
2022/05/14 12:46:48;;;;;;;7.30;2.05;;;;;;;21.67;35.07;98871.47;2159847;81;21149;-83
2022/05/14 12:49:50;;;;;;;6.42;2.65;;;;;;;21.72;35.37;98858.72;2153321;80;21603;-83
2022/05/14 12:52:51;;;;;;;4.75;2.10;;;;;;;21.81;35.48;98849.23;2197568;80;21069;-84
2022/05/14 12:55:54;;;;;;;6.20;2.00;;;;;;;21.69;35.16;98857.37;2176446;81;21117;-84
2022/05/14 12:58:55;;;;;;;3.35;1.98;;;;;;;21.70;35.75;98869.64;2133953;82;21057;-83
2022/05/14 13:01:57;;;;;;;4.90;2.42;;;;;;;21.63;35.71;98856.21;2184202;80;21048;-84
2022/05/14 13:04:59;;;;;;;6.03;2.60;;;;;;;21.78;36.02;98865.73;2153272;82;20985;-80
2022/05/14 13:08:03;;;;;;;5.53;2.45;;;;;;;21.75;35.85;98865.68;2166378;80;20953;-83
2022/05/14 13:11:06;;;;;;;3.00;2.45;;;;;;;21.69;36.06;98861.36;2165410;81;21608;-84
2022/05/14 13:14:08;;;;;;;4.45;3.15;;;;;;;21.66;35.77;98861.03;2139290;81;21063;-83
2022/05/14 13:17:10;;;;;;;4.50;1.90;;;;;;;21.54;36.39;98869.95;2153441;80;21558;-82
2022/05/14 13:20:12;;;;;;;3.52;2.83;;;;;;;21.56;36.75;98870.52;2149392;81;21401;-83
2022/05/14 13:23:13;;;;;;;4.60;2.10;;;;;;;21.61;36.39;98861.80;2159830;80;21053;-83
2022/05/14 13:26:15;;;;;;;5.60;2.72;;;;;;;21.68;36.46;98863.75;2163838;82;21118;-82
2022/05/14 13:29:17;;;;;;;8.43;2.55;;;;;;;21.61;36.54;98860.46;2165529;82;21073;-82
2022/05/14 13:32:19;;;;;;;4.08;2.60;;;;;;;21.63;37.13;98854.88;2168712;81;21056;-83
2022/05/14 13:38:41;;;;;;;3.95;2.72;;;;;;;21.74;36.03;98852.61;2160773;82;21096;-83
2022/05/14 13:41:42;;;;;;;3.22;2.72;;;;;;;21.74;36.30;98860.61;2141923;81;21472;-83
2022/05/14 13:44:45;;;;;;;6.85;3.37;;;;;;;21.73;36.53;98856.33;2143199;81;21575;-83
2022/05/14 13:47:47;;;;;;;3.62;2.80;;;;;;;21.66;36.48;98853.84;2147807;81;21045;-82
2022/05/14 13:50:49;;;;;;;3.30;3.00;;;;;;;21.46;36.29;98844.27;2137206;81;21002;-81
2022/05/14 13:53:51;;;;;;;5.90;2.90;;;;;;;21.24;36.90;98852.22;2126089;81;21119;-82
2022/05/14 13:56:53;;;;;;;7.20;4.62;;;;;;;21.17;37.34;98868.35;2168993;82;21545;-82
2022/05/14 13:59:55;;;;;;;5.95;3.62;;;;;;;21.12;37.39;98861.64;2165945;82;21005;-82
2022/05/14 14:02:57;;;;;;;7.05;3.60;;;;;;;21.21;37.64;98850.02;2169358;81;21044;-82
2022/05/14 14:05:59;;;;;;;5.28;3.70;;;;;;;21.28;37.58;98862.15;2167241;81;21567;-83
2022/05/14 14:09:01;;;;;;;5.85;3.40;;;;;;;21.26;37.93;98858.93;2187326;80;21077;-84
2022/05/14 14:12:02;;;;;;;6.10;3.58;;;;;;;21.32;37.82;98857.69;2207429;80;21093;-83
2022/05/14 14:15:04;;;;;;;3.47;3.10;;;;;;;21.21;37.79;98856.19;2201058;80;21076;-86
2022/05/14 14:18:06;;;;;;;4.67;3.10;;;;;;;21.24;38.13;98845.56;2203121;80;21036;-83
2022/05/14 14:21:08;;;;;;;7.33;3.17;;;;;;;21.35;38.15;98857.98;2203299;80;21139;-85
2022/05/14 14:24:10;;;;;;;6.30;3.00;;;;;;;21.34;38.19;98861.70;2200860;80;21333;-84
2022/05/14 14:27:12;;;;;;;5.35;3.10;;;;;;;21.19;38.26;98864.11;2178656;81;22110;-84
2022/05/14 14:30:13;;;;;;;7.33;3.52;;;;;;;21.06;38.03;98857.81;2184845;81;21013;-83
2022/05/14 14:33:15;;;;;;;4.05;3.15;;;;;;;21.09;38.63;98868.77;2186392;81;21101;-85
2022/05/14 14:36:17;;;;;;;5.72;3.10;;;;;;;20.97;38.59;98872.05;2169629;80;20974;-85
2022/05/14 14:39:19;;;;;;;7.60;2.85;;;;;;;20.72;38.84;98879.91;2143705;81;21081;-84